Time;durP1;ratioP1;P1;durP2;ratioP2;P2;SDS_P1;SDS_P2;PMS_P1;PMS_P2;Temp;Humidity;BMP_temperature;BMP_pressure;BME280_temperature;BME280_humidity;BME280_pressure;Samples;Min_cycle;Max_cycle;Signal;HPM_P1;HPM_P2
2022/06/22 00:00:35;;;;;;;3.30;1.70;;;;;16.70;100776.00;;;;4947806;28;20240;-71
2022/06/22 00:03:21;;;;;;;3.30;1.70;;;;;16.60;100772.00;;;;4949919;28;20208;-70
2022/06/22 00:06:19;;;;;;;3.27;1.80;;;;;16.50;100775.00;;;;4950163;29;20232;-72
2022/06/22 00:09:07;;;;;;;3.90;1.90;;;;;16.40;100778.00;;;;4949220;28;20243;-70
2022/06/22 00:11:55;;;;;;;4.53;1.80;;;;;16.50;100792.00;;;;4948011;28;20219;-72
2022/06/22 00:14:45;;;;;;;1.83;1.53;;;;;16.50;100781.00;;;;4948597;29;20342;-71
2022/06/22 00:17:35;;;;;;;1.70;1.60;;;;;16.50;100780.00;;;;4946400;28;20211;-70
2022/06/22 00:20:24;;;;;;;3.57;1.80;;;;;16.50;100783.00;;;;4948168;28;20242;-71
2022/06/22 00:23:25;;;;;;;2.43;1.80;;;;;16.30;100777.00;;;;4946804;29;20222;-71
2022/06/22 00:26:36;;;;;;;2.17;1.83;;;;;16.10;100778.00;;;;4946835;29;20352;-71
2022/06/22 00:29:26;;;;;;;1.97;1.87;;;;;16.00;100781.00;;;;4941360;29;20313;-71
2022/06/22 00:32:16;;;;;;;4.13;1.90;;;;;15.90;100771.00;;;;4941750;28;20302;-68
2022/06/22 00:35:41;;;;;;;1.73;1.50;;;;;15.90;100770.00;;;;4947667;28;20703;-72
2022/06/22 00:38:30;;;;;;;1.90;1.80;;;;;15.80;100764.00;;;;4944421;28;20239;-71
2022/06/22 00:41:19;;;;;;;2.50;2.07;;;;;15.60;100770.00;;;;4945526;28;20351;-71
2022/06/22 00:44:08;;;;;;;2.20;1.70;;;;;15.50;100775.00;;;;4948059;29;21020;-72
2022/06/22 00:47:01;;;;;;;1.70;1.60;;;;;15.50;100777.00;;;;4949640;28;20238;-71
2022/06/22 00:49:47;;;;;;;4.10;2.00;;;;;15.40;100772.00;;;;4949477;28;20358;-70
2022/06/22 00:52:39;;;;;;;2.57;1.87;;;;;15.40;100768.00;;;;4951537;29;20210;-73
2022/06/22 00:55:33;;;;;;;2.43;1.90;;;;;15.40;100760.00;;;;4944528;28;20343;-72
2022/06/22 00:58:26;;;;;;;5.50;1.90;;;;;15.30;100755.00;;;;4944498;29;20617;-73
2022/06/22 01:01:20;;;;;;;2.13;1.93;;;;;15.20;100747.00;;;;4949943;28;20277;-68
2022/06/22 01:04:15;;;;;;;2.63;2.00;;;;;15.20;100744.00;;;;4947125;28;20691;-70
2022/06/22 01:07:11;;;;;;;2.10;1.70;;;;;15.10;100757.00;;;;4948253;28;20411;-71
2022/06/22 01:10:05;;;;;;;2.30;1.80;;;;;15.10;100750.00;;;;4947010;28;20313;-70
2022/06/22 01:12:55;;;;;;;2.60;2.00;;;;;15.00;100752.00;;;;4949382;29;20223;-71
2022/06/22 01:15:48;;;;;;;2.10;1.90;;;;;15.00;100749.00;;;;4949525;28;20232;-73
2022/06/22 01:18:41;;;;;;;3.13;1.90;;;;;15.00;100734.00;;;;4944373;28;20213;-71
2022/06/22 01:21:34;;;;;;;2.30;2.03;;;;;14.90;100739.00;;;;4944514;28;20213;-68
2022/06/22 01:24:25;;;;;;;2.50;1.77;;;;;14.90;100744.00;;;;4948474;28;20691;-69
2022/06/22 01:27:29;;;;;;;3.57;1.80;;;;;14.90;100728.00;;;;4949313;28;20340;-73
2022/06/22 01:30:23;;;;;;;2.10;1.90;;;;;14.90;100728.00;;;;4942095;29;20612;-71
2022/06/22 01:33:16;;;;;;;2.30;1.80;;;;;14.90;100721.00;;;;4948836;29;21022;-69
2022/06/22 01:36:07;;;;;;;3.70;2.00;;;;;15.00;100726.00;;;;4948604;28;20236;-72
2022/06/22 01:38:53;;;;;;;2.57;2.20;;;;;14.90;100727.00;;;;4947525;28;20291;-73
2022/06/22 01:41:45;;;;;;;2.97;1.87;;;;;14.90;100732.00;;;;4945752;28;20220;-70
2022/06/22 01:44:38;;;;;;;2.13;1.93;;;;;15.00;100725.00;;;;4943734;29;20729;-71
2022/06/22 01:47:34;;;;;;;2.20;2.00;;;;;15.00;100734.00;;;;4942162;28;20223;-73
2022/06/22 01:50:28;;;;;;;2.00;1.90;;;;;14.90;100739.00;;;;4946849;28;20662;-71
2022/06/22 01:53:24;;;;;;;1.93;1.70;;;;;14.80;100736.00;;;;4946250;28;20283;-72
2022/06/22 01:56:18;;;;;;;2.27;2.07;;;;;14.80;100740.00;;;;4947776;28;20217;-70
2022/06/22 01:59:18;;;;;;;1.87;1.70;;;;;15.00;100741.00;;;;4945703;28;20714;-72
2022/06/22 02:02:10;;;;;;;3.13;2.03;;;;;14.90;100741.00;;;;4946238;28;20291;-71
2022/06/22 02:05:03;;;;;;;2.17;1.83;;;;;14.80;100748.00;;;;4946561;28;20212;-71
2022/06/22 02:08:00;;;;;;;2.97;2.00;;;;;14.90;100746.00;;;;4946111;29;20218;-73
2022/06/22 02:10:51;;;;;;;2.50;2.10;;;;;14.80;100751.00;;;;4945766;28;20236;-71
2022/06/22 02:13:41;;;;;;;4.50;2.00;;;;;14.80;100749.00;;;;4946766;28;20275;-68
2022/06/22 02:16:31;;;;;;;2.27;2.07;;;;;14.60;100739.00;;;;4945685;28;20240;-71
2022/06/22 02:19:20;;;;;;;2.07;1.90;;;;;14.60;100727.00;;;;4946754;28;20236;-71
2022/06/22 02:22:10;;;;;;;3.73;2.53;;;;;14.80;100720.00;;;;4945695;28;20263;-73
2022/06/22 02:24:56;;;;;;;3.80;2.77;;;;;14.80;100723.00;;;;4945812;28;20353;-71
2022/06/22 02:27:43;;;;;;;4.07;2.60;;;;;15.00;100719.00;;;;4946973;28;20213;-71
2022/06/22 02:30:31;;;;;;;3.33;2.60;;;;;15.00;100716.00;;;;4941418;28;20236;-69
2022/06/22 02:33:17;;;;;;;3.73;2.40;;;;;15.00;100716.00;;;;4948416;29;20220;-70
2022/06/22 02:36:06;;;;;;;4.53;2.50;;;;;15.00;100719.00;;;;4947746;28;20223;-71
2022/06/22 02:38:55;;;;;;;3.40;2.50;;;;;15.00;100727.00;;;;4944279;28;20247;-71
2022/06/22 02:44:46;;;;;;;3.33;2.17;;;;;15.00;100720.00;;;;4947957;28;20244;-70
2022/06/22 02:47:44;;;;;;;3.33;2.63;;;;;14.90;100715.00;;;;4942483;28;20325;-69
2022/06/22 02:50:36;;;;;;;5.40;2.90;;;;;14.90;100708.00;;;;4940977;28;20228;-71
2022/06/22 02:53:28;;;;;;;3.23;2.83;;;;;14.80;100711.00;;;;4947162;29;20586;-73
2022/06/22 02:56:18;;;;;;;2.97;2.60;;;;;14.70;100716.00;;;;4946121;28;20225;-67
2022/06/22 02:59:07;;;;;;;2.40;2.20;;;;;14.70;100705.00;;;;4947812;28;20240;-71
2022/06/22 03:01:53;;;;;;;3.00;2.40;;;;;14.60;100693.00;;;;4946940;28;20295;-71
2022/06/22 03:04:41;;;;;;;4.17;2.27;;;;;14.50;100682.00;;;;4944532;28;20623;-73
2022/06/22 03:07:29;;;;;;;3.50;3.07;;;;;14.60;100673.00;;;;4944329;28;20212;-69
2022/06/22 03:10:24;;;;;;;3.67;2.57;;;;;14.70;100676.00;;;;4947196;28;20232;-70
2022/06/22 03:13:13;;;;;;;5.63;2.83;;;;;14.80;100686.00;;;;4945713;28;20220;-72
2022/06/22 03:16:00;;;;;;;3.13;2.60;;;;;14.70;100679.00;;;;4939837;28;20310;-70
2022/06/22 03:18:50;;;;;;;3.27;2.63;;;;;14.70;100672.00;;;;4947044;28;20216;-72
2022/06/22 03:21:36;;;;;;;3.90;2.50;;;;;14.60;100678.00;;;;4942426;28;20224;-70
2022/06/22 03:24:33;;;;;;;4.53;2.97;;;;;14.60;100661.00;;;;4947481;28;20215;-72
2022/06/22 03:27:24;;;;;;;8.70;3.23;;;;;14.70;100665.00;;;;4946852;28;20589;-73
2022/06/22 03:30:15;;;;;;;5.33;3.47;;;;;14.90;100672.00;;;;4949702;28;20795;-71
2022/06/22 03:33:07;;;;;;;3.60;3.27;;;;;14.90;100668.00;;;;4950662;28;20581;-72
2022/06/22 03:35:57;;;;;;;6.50;3.70;;;;;14.90;100678.00;;;;4951196;28;20343;-72
2022/06/22 03:38:49;;;;;;;5.20;3.53;;;;;14.90;100681.00;;;;4945627;28;20762;-70
2022/06/22 03:41:42;;;;;;;5.80;3.30;;;;;14.90;100698.00;;;;4948758;28;20268;-71
2022/06/22 03:44:33;;;;;;;4.30;3.30;;;;;14.80;100712.00;;;;4948191;28;20835;-71
2022/06/22 03:47:24;;;;;;;8.83;2.67;;;;;14.80;100707.00;;;;4950537;28;20363;-70
2022/06/22 03:50:19;;;;;;;3.73;2.20;;;;;14.70;100717.00;;;;4948891;28;20777;-70
2022/06/22 03:53:11;;;;;;;2.80;2.60;;;;;14.60;100725.00;;;;4948020;28;20225;-71
2022/06/22 03:56:03;;;;;;;4.50;2.60;;;;;14.50;100724.00;;;;4947334;28;20279;-71
2022/06/22 03:58:52;;;;;;;2.50;2.30;;;;;14.40;100726.00;;;;4949682;29;20684;-70
2022/06/22 04:01:41;;;;;;;2.53;2.33;;;;;14.40;100721.00;;;;4951592;28;20741;-70
2022/06/22 04:04:28;;;;;;;2.77;2.47;;;;;14.40;100716.00;;;;4949897;28;20261;-70
2022/06/22 04:07:15;;;;;;;5.03;2.60;;;;;14.40;100717.00;;;;4950870;29;20220;-70
2022/06/22 04:10:02;;;;;;;4.27;3.00;;;;;14.60;100705.00;;;;4947877;29;20236;-70
2022/06/22 04:12:51;;;;;;;5.13;3.23;;;;;14.60;100698.00;;;;4950127;28;20225;-70
2022/06/22 04:15:42;;;;;;;3.40;2.70;;;;;14.70;100699.00;;;;4944620;28;20216;-72
2022/06/22 04:18:35;;;;;;;6.83;2.73;;;;;14.60;100700.00;;;;4943110;29;20220;-71
2022/06/22 04:21:26;;;;;;;5.27;3.10;;;;;14.70;100696.00;;;;4949723;28;20919;-71
2022/06/22 04:24:15;;;;;;;6.07;3.33;;;;;14.80;100700.00;;;;4950254;29;20403;-72
2022/06/22 04:27:07;;;;;;;5.40;3.37;;;;;14.80;100693.00;;;;4946817;29;20306;-71
2022/06/22 04:30:06;;;;;;;4.10;3.03;;;;;14.80;100691.00;;;;4947961;28;20687;-73
2022/06/22 04:33:00;;;;;;;6.13;4.00;;;;;14.90;100698.00;;;;4949114;28;20342;-73
2022/06/22 04:35:53;;;;;;;6.37;3.77;;;;;15.00;100707.00;;;;4950363;28;20260;-71
2022/06/22 04:38:44;;;;;;;7.50;3.63;;;;;15.10;100702.00;;;;4947411;29;20275;-71
2022/06/22 04:41:36;;;;;;;8.53;3.80;;;;;15.10;100695.00;;;;4942921;28;20259;-70
2022/06/22 04:44:26;;;;;;;5.70;4.07;;;;;15.20;100695.00;;;;4949956;28;20697;-70
2022/06/22 04:47:19;;;;;;;6.07;4.40;;;;;15.40;100701.00;;;;4947805;28;20216;-70
2022/06/22 04:50:08;;;;;;;6.30;4.60;;;;;15.40;100705.00;;;;4948048;29;20245;-70
2022/06/22 04:53:02;;;;;;;7.53;4.40;;;;;15.60;100699.00;;;;4950230;28;20241;-72
2022/06/22 04:55:49;;;;;;;6.10;4.60;;;;;15.80;100705.00;;;;4948708;28;20257;-72
2022/06/22 04:58:40;;;;;;;7.10;4.33;;;;;15.90;100706.00;;;;4949168;28;20619;-72
2022/06/22 05:01:29;;;;;;;7.20;4.50;;;;;15.90;100705.00;;;;4942117;29;20253;-70
2022/06/22 05:04:20;;;;;;;9.27;4.40;;;;;16.00;100704.00;;;;4947536;28;20585;-69
2022/06/22 05:07:14;;;;;;;6.83;4.30;;;;;16.20;100714.00;;;;4948879;29;20222;-71
2022/06/22 05:10:06;;;;;;;7.60;3.83;;;;;16.20;100708.00;;;;4946035;29;20659;-70
2022/06/22 05:12:57;;;;;;;8.97;4.17;;;;;16.30;100708.00;;;;4947614;28;20245;-71
2022/06/22 05:15:46;;;;;;;7.73;4.20;;;;;16.40;100713.00;;;;4945381;29;20345;-70
2022/06/22 05:18:34;;;;;;;6.07;4.23;;;;;16.30;100711.00;;;;4939070;29;20339;-69
2022/06/22 05:21:35;;;;;;;6.67;4.13;;;;;16.50;100719.00;;;;4946965;28;20682;-71
2022/06/22 05:24:25;;;;;;;6.80;4.37;;;;;16.50;100717.00;;;;4947999;28;20238;-70
2022/06/22 05:27:20;;;;;;;8.30;4.27;;;;;16.50;100725.00;;;;4948516;28;20816;-69
2022/06/22 05:30:08;;;;;;;7.00;3.80;;;;;16.50;100735.00;;;;4946377;29;20299;-70
2022/06/22 05:32:58;;;;;;;6.40;4.10;;;;;16.60;100740.00;;;;4944848;28;20337;-71
2022/06/22 05:35:48;;;;;;;7.43;4.10;;;;;16.60;100754.00;;;;4948092;28;20210;-69
2022/06/22 05:38:38;;;;;;;7.20;3.80;;;;;16.70;100774.00;;;;4942104;29;20297;-72
2022/06/22 05:41:30;;;;;;;4.77;3.97;;;;;16.70;100768.00;;;;4948922;29;20220;-71
2022/06/22 05:44:19;;;;;;;10.33;4.83;;;;;16.90;100766.00;;;;4949193;29;20222;-70
2022/06/22 05:47:06;;;;;;;7.20;4.97;;;;;16.90;100752.00;;;;4945626;29;20353;-71
2022/06/22 05:49:57;;;;;;;5.50;4.00;;;;;17.10;100752.00;;;;4947877;28;20282;-71
2022/06/22 05:52:47;;;;;;;6.77;4.07;;;;;17.20;100753.00;;;;4946554;28;20233;-70
2022/06/22 05:55:47;;;;;;;7.20;3.50;;;;;17.00;100759.00;;;;4947524;29;20579;-72
2022/06/22 05:58:40;;;;;;;7.10;3.70;;;;;17.10;100761.00;;;;4943682;28;20227;-70
2022/06/22 06:01:40;;;;;;;4.87;3.77;;;;;17.20;100764.00;;;;4948367;28;20214;-71
2022/06/22 06:04:31;;;;;;;5.73;3.20;;;;;17.20;100777.00;;;;4948268;28;20216;-71
2022/06/22 06:07:24;;;;;;;5.57;3.43;;;;;17.40;100772.00;;;;4947346;28;20216;-71
2022/06/22 06:10:17;;;;;;;4.00;3.53;;;;;17.40;100768.00;;;;4946018;28;20246;-72
2022/06/22 06:13:07;;;;;;;4.90;3.53;;;;;17.40;100774.00;;;;4943954;29;20833;-73
2022/06/22 06:15:57;;;;;;;4.83;3.43;;;;;17.50;100771.00;;;;4947923;28;20220;-71
2022/06/22 06:18:55;;;;;;;6.50;3.70;;;;;17.60;100776.00;;;;4947584;28;20240;-71
2022/06/22 06:21:41;;;;;;;7.50;3.73;;;;;17.60;100775.00;;;;4944273;28;20294;-71
2022/06/22 06:24:32;;;;;;;4.23;3.27;;;;;17.70;100787.00;;;;4946786;28;20291;-72
2022/06/22 06:27:38;;;;;;;4.20;3.57;;;;;17.80;100793.00;;;;4946299;28;20315;-71
2022/06/22 06:30:38;;;;;;;8.10;3.60;;;;;17.70;100797.00;;;;4941709;29;20235;-71
2022/06/22 06:33:32;;;;;;;4.50;3.33;;;;;17.90;100797.00;;;;4945338;29;20235;-71
2022/06/22 06:36:26;;;;;;;5.17;3.17;;;;;17.90;100793.00;;;;4945103;28;20671;-73
2022/06/22 06:39:19;;;;;;;4.33;3.07;;;;;18.00;100790.00;;;;4944698;28;20228;-71
2022/06/22 06:42:16;;;;;;;3.60;2.77;;;;;18.10;100787.00;;;;4945889;29;20219;-71
2022/06/22 06:45:03;;;;;;;3.63;2.97;;;;;18.20;100791.00;;;;4944916;28;20228;-72
2022/06/22 06:47:52;;;;;;;3.77;3.30;;;;;18.30;100785.00;;;;4945163;29;20224;-71
2022/06/22 06:50:42;;;;;;;4.27;2.53;;;;;18.30;100786.00;;;;4941324;29;20236;-72
2022/06/22 06:53:39;;;;;;;6.10;2.90;;;;;18.40;100789.00;;;;4946022;28;20232;-71
2022/06/22 06:56:30;;;;;;;3.33;2.73;;;;;18.40;100774.00;;;;4947982;29;20220;-71
2022/06/22 06:59:19;;;;;;;3.60;3.17;;;;;18.60;100767.00;;;;4946504;28;20737;-71
2022/06/22 07:02:15;;;;;;;6.03;3.13;;;;;18.60;100780.00;;;;4948579;29;20213;-71
2022/06/22 07:05:04;;;;;;;2.80;2.60;;;;;18.60;100772.00;;;;4947596;28;20212;-71
2022/06/22 07:07:55;;;;;;;5.30;2.87;;;;;18.80;100784.00;;;;4951927;28;20616;-70
2022/06/22 07:10:49;;;;;;;5.87;3.13;;;;;18.90;100781.00;;;;4951172;28;20254;-72
2022/06/22 07:13:45;;;;;;;5.47;3.00;;;;;18.90;100776.00;;;;4944548;28;20239;-72
2022/06/22 07:16:31;;;;;;;4.07;2.97;;;;;19.00;100775.00;;;;4950407;28;20277;-70
2022/06/22 07:19:27;;;;;;;5.03;3.40;;;;;19.20;100773.00;;;;4951657;29;20323;-68
2022/06/22 07:22:21;;;;;;;4.13;3.03;;;;;19.20;100771.00;;;;4949124;28;20219;-70
2022/06/22 07:25:15;;;;;;;5.47;3.30;;;;;19.30;100769.00;;;;4952171;28;20244;-71
2022/06/22 07:28:09;;;;;;;5.97;2.93;;;;;19.40;100769.00;;;;4950580;28;20280;-71
2022/06/22 07:31:01;;;;;;;4.03;3.00;;;;;19.40;100758.00;;;;4947972;29;20244;-71
2022/06/22 07:33:50;;;;;;;4.07;2.87;;;;;19.60;100756.00;;;;4950525;28;20225;-73
2022/06/22 07:36:41;;;;;;;5.13;3.00;;;;;19.80;100758.00;;;;4945181;28;20352;-72
2022/06/22 07:39:33;;;;;;;6.63;3.10;;;;;20.20;100749.00;;;;4951706;28;20235;-70
2022/06/22 07:42:20;;;;;;;3.50;2.97;;;;;20.10;100746.00;;;;4952521;29;20700;-74
2022/06/22 07:45:14;;;;;;;7.80;2.80;;;;;20.40;100749.00;;;;4949424;29;20220;-72
2022/06/22 07:48:05;;;;;;;11.90;4.33;;;;;20.70;100740.00;;;;4949425;28;20212;-71
2022/06/22 07:50:54;;;;;;;4.07;2.83;;;;;20.70;100742.00;;;;4946318;28;20236;-71
2022/06/22 07:53:47;;;;;;;4.03;2.40;;;;;20.90;100735.00;;;;4953844;28;20232;-70
2022/06/22 07:56:52;;;;;;;4.00;2.50;;;;;21.10;100734.00;;;;4950743;28;20292;-71
2022/06/22 07:59:47;;;;;;;4.23;2.70;;;;;21.10;100731.00;;;;4951577;28;20360;-70
2022/06/22 08:02:42;;;;;;;4.10;2.30;;;;;21.10;100731.00;;;;4951069;29;20278;-71
2022/06/22 08:05:33;;;;;;;3.13;2.60;;;;;21.40;100730.00;;;;4950171;28;20216;-72
2022/06/22 08:08:26;;;;;;;4.00;2.27;;;;;21.50;100728.00;;;;4948983;28;20260;-68
2022/06/22 08:11:18;;;;;;;7.00;2.40;;;;;21.80;100729.00;;;;4949829;28;20702;-68
2022/06/22 08:14:10;;;;;;;3.90;2.37;;;;;22.00;100721.00;;;;4946589;28;20624;-68
2022/06/22 08:16:59;;;;;;;4.37;2.20;;;;;22.10;100733.00;;;;4948733;28;20225;-72
2022/06/22 08:19:47;;;;;;;4.07;2.27;;;;;22.40;100741.00;;;;4945633;28;20232;-68
2022/06/22 08:22:34;;;;;;;3.07;2.37;;;;;22.70;100733.00;;;;4951681;28;20221;-73
2022/06/22 08:25:22;;;;;;;5.50;2.33;;;;;22.80;100734.00;;;;4950692;29;20215;-68
2022/06/22 08:28:09;;;;;;;3.10;2.10;;;;;22.90;100739.00;;;;4950855;28;20298;-72
2022/06/22 08:30:56;;;;;;;5.87;2.13;;;;;23.00;100754.00;;;;4949152;28;20245;-70
2022/06/22 08:33:47;;;;;;;2.30;2.00;;;;;23.00;100745.00;;;;4951896;28;20286;-73
2022/06/22 08:36:42;;;;;;;5.43;2.03;;;;;23.10;100742.00;;;;4951692;28;20290;-72
2022/06/22 08:39:33;;;;;;;2.20;2.00;;;;;23.00;100755.00;;;;4949799;28;20743;-71
2022/06/22 08:42:29;;;;;;;2.50;1.80;;;;;23.10;100754.00;;;;4950200;28;20708;-71
2022/06/22 08:45:37;;;;;;;2.77;2.17;;;;;23.30;100757.00;;;;4947467;28;20227;-71
2022/06/22 08:48:59;;;;;;;2.80;2.07;;;;;23.40;100768.00;;;;4972276;28;20219;-74
2022/06/22 08:52:01;;;;;;;2.77;2.17;;;;;23.40;100761.00;;;;4975182;28;20230;-72
2022/06/22 08:55:15;;;;;;;3.47;1.87;;;;;23.80;100756.00;;;;4975234;28;20235;-76
2022/06/22 08:58:24;;;;;;;2.30;1.70;;;;;23.70;100758.00;;;;4978562;28;20245;-75
2022/06/22 09:01:27;;;;;;;2.50;1.70;;;;;24.10;100753.00;;;;4974303;28;20211;-75
2022/06/22 09:04:33;;;;;;;3.00;1.70;;;;;24.10;100744.00;;;;4976806;28;20188;-74
2022/06/22 09:07:41;;;;;;;2.00;1.80;;;;;24.00;100738.00;;;;4976084;28;20220;-72
2022/06/22 09:11:00;;;;;;;2.63;1.80;;;;;24.10;100744.00;;;;4970187;28;20292;-75
2022/06/22 09:14:07;;;;;;;2.20;1.90;;;;;24.30;100743.00;;;;4949102;28;20231;-71
2022/06/22 09:17:21;;;;;;;4.57;1.87;;;;;24.20;100739.00;;;;4950404;28;20279;-72
2022/06/22 09:20:38;;;;;;;3.93;1.87;;;;;24.10;100752.00;;;;4945621;28;20878;-69
2022/06/22 09:23:41;;;;;;;4.50;1.80;;;;;24.30;100734.00;;;;4946796;28;20725;-72
2022/06/22 09:26:36;;;;;;;5.10;1.63;;;;;24.60;100734.00;;;;4949310;28;20207;-72
2022/06/22 09:29:53;;;;;;;2.60;1.70;;;;;24.50;100741.00;;;;4946978;28;20251;-72
2022/06/22 09:33:09;;;;;;;4.23;1.83;;;;;24.60;100752.00;;;;4947703;28;20348;-73
2022/06/22 09:36:39;;;;;;;2.17;1.70;;;;;24.60;100765.00;;;;4945330;29;20224;-71
2022/06/22 09:40:04;;;;;;;4.27;1.60;;;;;24.60;100768.00;;;;4946409;28;20247;-73
2022/06/22 09:43:16;;;;;;;3.40;1.87;;;;;24.70;100769.00;;;;4945387;28;21091;-69
2022/06/22 09:46:19;;;;;;;2.87;1.50;;;;;24.70;100774.00;;;;4946390;28;20247;-66
2022/06/22 09:49:52;;;;;;;4.57;2.23;;;;;24.70;100781.00;;;;4948747;28;20247;-71
2022/06/22 09:53:03;;;;;;;3.93;1.50;;;;;25.20;100779.00;;;;4947051;28;20224;-68
2022/06/22 09:56:22;;;;;;;2.77;1.87;;;;;25.20;100777.00;;;;4940982;29;20212;-73
2022/06/22 09:59:42;;;;;;;4.87;2.20;;;;;25.20;100785.00;;;;4945543;28;20239;-72
2022/06/22 10:03:10;;;;;;;2.30;1.77;;;;;25.40;100763.00;;;;4945697;28;20253;-73
2022/06/22 10:06:26;;;;;;;4.17;2.40;;;;;25.30;100782.00;;;;4946705;28;20220;-68
2022/06/22 10:09:38;;;;;;;6.20;1.70;;;;;25.50;100772.00;;;;4948090;29;20357;-72
2022/06/22 10:12:40;;;;;;;2.07;1.87;;;;;25.60;100774.00;;;;4948069;29;20336;-71
2022/06/22 10:15:44;;;;;;;4.47;1.60;;;;;25.60;100779.00;;;;4946451;28;20319;-74
2022/06/22 10:18:58;;;;;;;3.97;1.60;;;;;25.60;100778.00;;;;4946815;28;20711;-74
2022/06/22 10:21:58;;;;;;;3.90;1.77;;;;;25.80;100776.00;;;;4948170;29;20747;-74
2022/06/22 10:24:58;;;;;;;2.93;1.73;;;;;25.70;100772.00;;;;4947198;28;20220;-70
2022/06/22 10:28:16;;;;;;;7.27;1.70;;;;;25.90;100768.00;;;;4942913;29;20231;-74
2022/06/22 10:31:11;;;;;;;3.80;1.80;;;;;26.20;100767.00;;;;4927078;29;20899;-72
2022/06/22 10:34:18;;;;;;;2.67;1.70;;;;;26.00;100767.00;;;;4941020;28;20364;-72
2022/06/22 10:37:49;;;;;;;1.63;1.53;;;;;26.30;100763.00;;;;4943400;28;20212;-73
2022/06/22 10:47:36;;;;;;;4.47;1.80;;;;;26.30;100756.00;;;;4946408;28;20289;-72
2022/06/22 10:50:34;;;;;;;4.40;1.70;;;;;26.70;100744.00;;;;4944327;28;20240;-70
2022/06/22 10:53:49;;;;;;;2.20;1.80;;;;;26.80;100742.00;;;;4947365;28;20219;-71
2022/06/22 10:56:56;;;;;;;3.53;1.80;;;;;27.00;100748.00;;;;4946328;28;20224;-72
2022/06/22 11:00:14;;;;;;;3.83;1.90;;;;;26.80;100744.00;;;;4947263;28;20244;-72
2022/06/22 11:03:46;;;;;;;1.87;1.67;;;;;27.00;100746.00;;;;4941293;28;20220;-74
2022/06/22 11:07:00;;;;;;;5.80;1.83;;;;;27.10;100740.00;;;;4943596;28;20223;-71
2022/06/22 11:10:00;;;;;;;2.93;1.60;;;;;27.00;100743.00;;;;4946637;28;20247;-73
2022/06/22 11:13:14;;;;;;;6.47;2.20;;;;;27.20;100742.00;;;;4944929;29;20208;-71
2022/06/22 11:16:27;;;;;;;2.07;1.50;;;;;27.00;100743.00;;;;4945638;29;20292;-72
2022/06/22 11:19:48;;;;;;;3.03;1.70;;;;;27.40;100744.00;;;;4946977;28;20232;-72
2022/06/22 11:22:40;;;;;;;1.90;1.80;;;;;27.20;100745.00;;;;4888929;29;20247;-72
2022/06/22 11:33:20;;;;;;;3.00;1.53;;;;;27.40;100751.00;;;;4945708;28;20224;-71
2022/06/22 11:36:22;;;;;;;2.40;1.73;;;;;27.60;100742.00;;;;4946730;28;20227;-72
2022/06/22 11:39:27;;;;;;;2.45;1.63;;;;;27.60;100739.00;;;;4944675;28;20291;-72
2022/06/22 11:42:23;;;;;;;2.85;1.65;;;;;27.90;100749.00;;;;4947904;28;20300;-70
2022/06/22 11:49:03;;;;;;;2.70;1.90;;;;;28.10;100761.00;;;;4946864;29;20220;-70
2022/06/22 11:52:19;;;;;;;1.98;1.60;;;;;28.10;100758.00;;;;4947382;29;20308;-69
2022/06/22 11:55:21;;;;;;;4.93;2.10;;;;;28.20;100760.00;;;;4950505;28;20308;-72
2022/06/22 11:58:26;;;;;;;2.08;1.88;;;;;28.50;100753.00;;;;4946040;28;20619;-73
2022/06/22 12:01:36;;;;;;;4.43;1.77;;;;;28.50;100743.00;;;;4946394;28;20219;-73
2022/06/22 12:04:54;;;;;;;2.67;1.70;;;;;28.70;100745.00;;;;4947996;29;20231;-72
2022/06/22 12:08:07;;;;;;;4.45;1.70;;;;;28.70;100757.00;;;;4949470;28;20216;-72
2022/06/22 12:11:02;;;;;;;2.25;1.70;;;;;28.80;100743.00;;;;4946807;28;20247;-71
2022/06/22 12:17:38;;;;;;;1.45;1.35;;;;;28.50;100738.00;;;;4950325;28;20296;-73
2022/06/22 12:20:35;;;;;;;4.82;1.73;;;;;28.60;100734.00;;;;4950390;28;20268;-69
2022/06/22 12:23:38;;;;;;;5.55;1.73;;;;;29.00;100740.00;;;;4945852;28;20232;-72
2022/06/22 12:26:39;;;;;;;2.30;1.70;;;;;29.00;100736.00;;;;4949750;28;20280;-72
2022/06/22 12:29:58;;;;;;;4.75;1.90;;;;;29.20;100731.00;;;;4947138;28;20231;-73
2022/06/22 12:32:51;;;;;;;2.88;1.60;;;;;29.30;100722.00;;;;4949616;28;20219;-72
2022/06/22 12:35:43;;;;;;;3.30;1.50;;;;;29.30;100721.00;;;;4950496;28;20244;-71
2022/06/22 12:38:36;;;;;;;1.63;1.52;;;;;29.60;100726.00;;;;4947143;28;20256;-70
2022/06/22 12:41:56;;;;;;;2.35;1.40;;;;;29.70;100720.00;;;;4949662;29;20780;-68
2022/06/22 12:45:02;;;;;;;2.38;1.55;;;;;29.70;100727.00;;;;4948971;28;20285;-72
2022/06/22 12:48:32;;;;;;;1.60;1.50;;;;;29.30;100717.00;;;;4949940;28;20213;-71
2022/06/22 12:51:26;;;;;;;2.00;1.48;;;;;29.50;100714.00;;;;4947176;29;20220;-72
2022/06/22 12:54:19;;;;;;;1.90;1.40;;;;;29.70;100711.00;;;;4943926;28;20219;-70
2022/06/22 12:57:10;;;;;;;4.30;1.52;;;;;29.90;100729.00;;;;4947244;29;20216;-70
2022/06/22 13:00:02;;;;;;;2.90;1.42;;;;;30.00;100706.00;;;;4942729;28;20232;-71
2022/06/22 13:02:51;;;;;;;3.42;1.80;;;;;30.00;100700.00;;;;4948234;28;20291;-71
2022/06/22 13:05:37;;;;;;;2.10;1.90;;;;;30.20;100713.00;;;;4947922;29;20823;-72
2022/06/22 13:08:26;;;;;;;4.80;1.95;;;;;30.30;100703.00;;;;4949463;28;20239;-70
2022/06/22 13:11:18;;;;;;;3.15;1.55;;;;;30.40;100702.00;;;;4949602;28;20961;-72
2022/06/22 13:14:25;;;;;;;3.97;1.50;;;;;30.40;100706.00;;;;4948789;28;20761;-71
2022/06/22 13:17:25;;;;;;;4.47;1.83;;;;;30.50;100704.00;;;;4949136;28;20348;-72
2022/06/22 13:20:33;;;;;;;4.75;1.48;;;;;30.70;100701.00;;;;4944156;28;20243;-72
2022/06/22 13:23:31;;;;;;;3.50;1.42;;;;;30.90;100696.00;;;;4944000;28;20260;-72
2022/06/22 13:26:36;;;;;;;2.47;1.80;;;;;30.80;100694.00;;;;4948761;29;20219;-71
2022/06/22 13:29:30;;;;;;;1.60;1.50;;;;;30.80;100692.00;;;;4948654;28;20312;-70
2022/06/22 13:32:18;;;;;;;4.90;1.50;;;;;30.90;100684.00;;;;4949142;29;20208;-71
2022/06/22 13:35:08;;;;;;;4.28;1.60;;;;;31.00;100681.00;;;;4943905;29;20359;-71
2022/06/22 13:38:26;;;;;;;1.58;1.48;;;;;31.00;100686.00;;;;4947123;28;20207;-71
2022/06/22 13:41:27;;;;;;;3.47;1.60;;;;;30.60;100671.00;;;;4944384;28;20211;-72
2022/06/22 13:44:39;;;;;;;1.88;1.30;;;;;31.10;100664.00;;;;4943829;28;20364;-72
2022/06/22 13:47:45;;;;;;;3.75;1.50;;;;;31.50;100666.00;;;;4945422;28;20208;-71
2022/06/22 13:50:53;;;;;;;1.80;1.60;;;;;31.70;100666.00;;;;4945045;28;20331;-73
2022/06/22 13:54:12;;;;;;;1.70;1.40;;;;;32.00;100658.00;;;;4948106;28;20223;-72
2022/06/22 13:57:07;;;;;;;4.22;1.73;;;;;32.30;100655.00;;;;4945937;29;20344;-71
2022/06/22 13:59:59;;;;;;;1.60;1.50;;;;;32.30;100655.00;;;;4949471;28;20228;-72
2022/06/22 14:03:00;;;;;;;2.78;1.40;;;;;32.90;100660.00;;;;4947132;29;20203;-73
2022/06/22 14:05:51;;;;;;;2.35;1.65;;;;;32.70;100650.00;;;;4948035;28;20220;-69
2022/06/22 14:08:54;;;;;;;3.38;1.67;;;;;33.60;100657.00;;;;4948271;28;20204;-75
2022/06/22 14:11:45;;;;;;;1.92;1.73;;;;;33.10;100647.00;;;;4946751;29;20203;-71
2022/06/22 14:14:38;;;;;;;1.52;1.42;;;;;33.00;100655.00;;;;4948085;28;20581;-71
2022/06/22 14:17:31;;;;;;;3.13;1.70;;;;;33.70;100663.00;;;;4947198;28;20583;-72
2022/06/22 14:20:26;;;;;;;3.35;1.67;;;;;34.50;100651.00;;;;4944080;28;20272;-70
2022/06/22 14:23:18;;;;;;;1.70;1.52;;;;;35.60;100651.00;;;;4943279;29;20732;-72
2022/06/22 14:26:30;;;;;;;3.63;1.63;;;;;37.10;100652.00;;;;4943455;28;20276;-70
2022/06/22 14:29:31;;;;;;;3.38;1.52;;;;;37.70;100642.00;;;;4946230;29;20284;-71
2022/06/22 14:32:23;;;;;;;3.35;1.70;;;;;39.50;100648.00;;;;4943318;28;20725;-72
2022/06/22 14:35:28;;;;;;;2.22;1.70;;;;;39.60;100648.00;;;;4943297;28;20864;-72
2022/06/22 14:38:25;;;;;;;3.00;1.60;;;;;39.90;100647.00;;;;4946569;28;20757;-72
2022/06/22 14:41:24;;;;;;;2.72;1.70;;;;;40.20;100651.00;;;;4947228;28;20313;-72
2022/06/22 14:44:27;;;;;;;1.50;1.40;;;;;41.00;100647.00;;;;4949737;29;20252;-71
2022/06/22 14:47:26;;;;;;;2.35;1.60;;;;;40.60;100647.00;;;;4947334;28;20207;-74
2022/06/22 14:50:20;;;;;;;3.70;1.58;;;;;40.70;100643.00;;;;4948158;28;20229;-72
2022/06/22 14:53:19;;;;;;;2.22;1.90;;;;;41.60;100655.00;;;;4942221;29;20332;-72
2022/06/22 14:56:12;;;;;;;2.08;1.60;;;;;41.90;100655.00;;;;4941690;29;20364;-71
2022/06/22 14:59:05;;;;;;;1.80;1.70;;;;;41.80;100649.00;;;;4947340;28;20703;-71